createdAt,value
2019-03-08T00:01:48.360Z,6.70
2019-03-08T00:04:15.875Z,6.70
2019-03-08T00:06:43.795Z,6.70
2019-03-08T00:09:11.935Z,6.80
2019-03-08T00:11:39.974Z,6.80
2019-03-08T00:14:07.682Z,6.80
2019-03-08T00:16:35.491Z,6.80
2019-03-08T00:19:03.645Z,6.80
2019-03-08T00:21:31.140Z,6.80
2019-03-08T00:23:59.622Z,6.90
2019-03-08T00:26:28.251Z,6.80
2019-03-08T00:28:56.390Z,6.80
2019-03-08T00:31:24.007Z,6.80
2019-03-08T00:33:51.654Z,6.80
2019-03-08T00:36:19.759Z,6.90
2019-03-08T00:38:47.171Z,6.90
2019-03-08T00:41:14.564Z,7.00
2019-03-08T00:43:41.889Z,7.00
2019-03-08T00:46:09.850Z,7.10
2019-03-08T00:48:37.473Z,7.10
2019-03-08T00:51:05.139Z,7.10
2019-03-08T00:53:32.694Z,7.10
2019-03-08T00:56:00.622Z,7.10
2019-03-08T00:58:28.668Z,7.10
2019-03-08T01:00:57.088Z,7.10
2019-03-08T01:03:24.950Z,7.10
2019-03-08T01:05:52.763Z,7.10
2019-03-08T01:08:21.054Z,7.00
2019-03-08T01:10:50.018Z,7.00
2019-03-08T01:13:18.195Z,7.00
2019-03-08T01:15:45.746Z,7.00
2019-03-08T01:18:14.034Z,7.00
2019-03-08T01:20:42.433Z,6.90
2019-03-08T01:23:10.198Z,6.90
2019-03-08T01:25:37.890Z,6.90
2019-03-08T01:28:11.249Z,6.80
2019-03-08T01:33:10.002Z,6.80
2019-03-08T01:35:37.956Z,6.80
2019-03-08T01:38:05.593Z,6.70
2019-03-08T01:40:33.117Z,6.70
2019-03-08T01:43:00.776Z,6.70
2019-03-08T01:45:28.591Z,6.90
2019-03-08T01:47:56.390Z,6.90
2019-03-08T01:50:25.593Z,6.90
2019-03-08T01:52:53.336Z,6.90
2019-03-08T01:55:20.833Z,7.00
2019-03-08T01:57:48.692Z,7.00
2019-03-08T02:00:17.572Z,6.90
2019-03-08T02:02:45.447Z,6.90
2019-03-08T02:05:13.418Z,6.90
2019-03-08T02:07:41.225Z,6.80
2019-03-08T02:10:11.138Z,6.80
2019-03-08T02:12:38.850Z,6.80
2019-03-08T02:15:08.242Z,6.80
2019-03-08T02:17:36.310Z,6.70
2019-03-08T02:20:05.424Z,6.70
2019-03-08T02:22:33.490Z,6.80
2019-03-08T02:25:01.390Z,6.80
2019-03-08T02:27:29.105Z,6.80
2019-03-08T02:29:57.256Z,6.70
2019-03-08T02:32:25.103Z,6.70
2019-03-08T02:34:52.544Z,6.80
2019-03-08T02:37:20.431Z,6.70
2019-03-08T02:39:47.616Z,6.70
2019-03-08T02:42:16.029Z,6.70
2019-03-08T02:44:43.776Z,6.70
2019-03-08T02:47:11.229Z,6.70
2019-03-08T02:49:39.341Z,6.70
2019-03-08T02:52:07.378Z,6.70
2019-03-08T02:54:35.805Z,6.70
2019-03-08T02:57:03.829Z,6.70
2019-03-08T02:59:31.548Z,6.60
2019-03-08T03:01:59.207Z,6.70
2019-03-08T03:04:26.595Z,6.70
2019-03-08T03:06:54.654Z,6.70
2019-03-08T03:09:22.667Z,6.70
2019-03-08T03:11:50.685Z,6.60
2019-03-08T03:14:18.437Z,6.70
2019-03-08T03:16:45.726Z,6.80
2019-03-08T03:19:13.454Z,6.70
2019-03-08T03:21:41.608Z,6.70
2019-03-08T03:24:09.121Z,6.60
2019-03-08T03:26:36.981Z,6.70
2019-03-08T03:29:04.790Z,6.60
2019-03-08T03:31:32.212Z,6.70
2019-03-08T03:33:59.816Z,6.60
2019-03-08T03:36:27.716Z,6.70
2019-03-08T03:38:55.764Z,6.60
2019-03-08T03:41:23.435Z,6.60
2019-03-08T03:43:51.408Z,6.60
2019-03-08T03:46:19.279Z,6.50
2019-03-08T03:48:46.565Z,6.50
2019-03-08T03:51:14.523Z,6.50
2019-03-08T03:53:42.191Z,6.50
2019-03-08T03:56:09.637Z,6.50
2019-03-08T03:58:37.584Z,6.50
2019-03-08T04:01:21.797Z,6.50
2019-03-08T04:03:49.561Z,6.50
2019-03-08T04:06:17.624Z,6.40
2019-03-08T04:08:45.767Z,6.30
2019-03-08T04:11:13.577Z,6.20
2019-03-08T04:13:41.124Z,6.20
2019-03-08T04:16:08.416Z,6.20
2019-03-08T04:18:36.330Z,6.20
2019-03-08T04:21:04.019Z,6.00
2019-03-08T04:23:31.693Z,6.00
2019-03-08T04:25:59.653Z,6.00
2019-03-08T04:28:27.384Z,6.10
2019-03-08T04:30:55.314Z,6.30
2019-03-08T04:33:22.886Z,6.40
2019-03-08T04:35:50.312Z,6.50
2019-03-08T04:38:18.415Z,6.60
2019-03-08T04:40:45.700Z,6.60
2019-03-08T04:43:13.279Z,6.60
2019-03-08T04:45:40.952Z,6.60
2019-03-08T04:48:08.638Z,6.60
2019-03-08T04:50:35.806Z,6.70
2019-03-08T04:53:03.919Z,6.70
2019-03-08T04:55:31.888Z,6.80
2019-03-08T04:58:00.270Z,6.80
2019-03-08T05:00:28.117Z,6.90
2019-03-08T05:02:55.883Z,6.90
2019-03-08T05:05:23.555Z,6.80
2019-03-08T05:07:51.763Z,6.90
2019-03-08T05:10:20.520Z,6.90
2019-03-08T05:12:48.026Z,7.00
2019-03-08T05:15:15.540Z,7.00
2019-03-08T05:17:43.671Z,7.00
2019-03-08T05:20:11.764Z,7.00
2019-03-08T05:22:39.319Z,7.10
2019-03-08T05:25:07.383Z,7.10
2019-03-08T05:27:35.428Z,7.10
2019-03-08T05:30:04.057Z,7.10
2019-03-08T05:32:31.760Z,7.10
2019-03-08T05:34:59.798Z,7.10
2019-03-08T05:40:03.517Z,7.10
2019-03-08T05:42:31.129Z,7.10
2019-03-08T05:44:58.598Z,7.10
2019-03-08T05:47:26.395Z,7.20
2019-03-08T05:49:54.022Z,7.10
2019-03-08T05:52:21.657Z,7.10
2019-03-08T05:54:50.034Z,7.10
2019-03-08T05:57:17.858Z,7.10
2019-03-08T05:59:45.582Z,7.00
2019-03-08T06:02:13.322Z,7.00
2019-03-08T06:04:41.051Z,7.00
2019-03-08T06:07:08.580Z,7.10
2019-03-08T06:09:36.440Z,7.00
2019-03-08T06:12:04.187Z,7.10
2019-03-08T06:14:31.882Z,7.10
2019-03-08T06:16:59.518Z,7.10
2019-03-08T06:19:27.893Z,7.10
2019-03-08T06:21:55.719Z,7.20
2019-03-08T06:24:23.282Z,7.10
2019-03-08T06:26:50.916Z,7.10
2019-03-08T06:29:19.371Z,7.10
2019-03-08T06:31:46.962Z,7.10
2019-03-08T06:34:14.728Z,7.20
2019-03-08T06:36:42.537Z,7.10
2019-03-08T06:39:10.716Z,7.10
2019-03-08T06:41:38.483Z,7.20
2019-03-08T06:44:05.910Z,7.20
2019-03-08T06:46:34.228Z,7.30
2019-03-08T06:49:02.940Z,7.30
2019-03-08T06:51:30.254Z,7.40
2019-03-08T06:53:57.623Z,7.40
2019-03-08T06:56:26.131Z,7.40
2019-03-08T06:59:00.248Z,7.40
2019-03-08T07:01:32.949Z,7.40
2019-03-08T07:04:00.526Z,7.40
2019-03-08T07:06:28.196Z,7.50
2019-03-08T07:08:55.886Z,7.50
2019-03-08T07:11:24.322Z,7.50
2019-03-08T07:13:52.597Z,7.50
2019-03-08T07:16:20.530Z,7.50
2019-03-08T07:18:48.526Z,7.60
2019-03-08T07:21:32.502Z,7.60
2019-03-08T07:24:11.458Z,7.60
2019-03-08T07:26:57.724Z,7.60
2019-03-08T07:29:45.695Z,7.80
2019-03-08T07:32:35.991Z,7.70
2019-03-08T07:35:33.054Z,7.80
2019-03-08T07:38:29.341Z,7.80
2019-03-08T07:41:16.345Z,7.80
2019-03-08T07:43:59.152Z,7.90
2019-03-08T07:46:51.488Z,7.90
2019-03-08T07:49:44.724Z,8.00
2019-03-08T07:52:23.918Z,7.90
2019-03-08T07:55:16.813Z,8.00
2019-03-08T07:57:51.820Z,8.10
2019-03-08T08:00:37.976Z,8.20
2019-03-08T08:03:28.231Z,8.40
2019-03-08T08:06:11.004Z,8.60
2019-03-08T08:08:52.761Z,8.60
2019-03-08T08:11:32.112Z,8.80
2019-03-08T08:14:10.984Z,9.00
2019-03-08T08:16:57.032Z,8.80
2019-03-08T08:19:47.393Z,8.80
2019-03-08T08:22:52.617Z,8.70
2019-03-08T08:25:36.297Z,8.80
2019-03-08T08:28:16.942Z,8.60
2019-03-08T08:30:58.902Z,8.40
2019-03-08T08:33:43.464Z,8.40
2019-03-08T08:36:29.344Z,8.50
2019-03-08T08:39:13.493Z,8.40
2019-03-08T08:41:50.617Z,8.40
2019-03-08T08:44:36.349Z,8.20
2019-03-08T08:47:15.608Z,8.00
2019-03-08T08:49:54.625Z,7.90
2019-03-08T08:52:38.624Z,7.90
2019-03-08T08:55:24.802Z,7.70
2019-03-08T08:58:24.743Z,7.60
2019-03-08T09:01:20.821Z,7.60
2019-03-08T09:04:11.285Z,7.70
2019-03-08T09:06:57.968Z,7.50
2019-03-08T09:09:38.444Z,7.70
2019-03-08T09:12:22.192Z,7.80
2019-03-08T09:15:05.057Z,7.60
2019-03-08T09:18:10.915Z,7.80
2019-03-08T09:20:57.858Z,7.70
2019-03-08T09:23:44.040Z,7.70
2019-03-08T09:26:25.014Z,7.40
2019-03-08T09:28:59.922Z,7.30
2019-03-08T09:31:43.298Z,7.50
2019-03-08T09:34:34.014Z,7.40
2019-03-08T09:37:21.061Z,7.50
2019-03-08T09:40:13.871Z,7.60
2019-03-08T09:43:03.968Z,7.60
2019-03-08T09:45:41.128Z,7.70
2019-03-08T09:48:15.783Z,7.70
2019-03-08T09:51:05.873Z,7.70
2019-03-08T09:53:40.364Z,7.70
2019-03-08T09:56:28.549Z,7.80
2019-03-08T09:59:27.386Z,7.80
2019-03-08T10:02:02.122Z,7.80
2019-03-08T10:04:48.295Z,7.60
2019-03-08T10:07:27.627Z,7.30
2019-03-08T10:10:14.099Z,7.50
2019-03-08T10:13:02.504Z,7.70
2019-03-08T10:15:32.508Z,7.70
2019-03-08T10:18:16.793Z,7.70
2019-03-08T10:21:04.681Z,7.80
2019-03-08T10:23:50.880Z,7.90
2019-03-08T10:26:34.820Z,7.80
2019-03-08T10:29:09.333Z,7.80
2019-03-08T10:32:05.452Z,7.90
2019-03-08T10:34:40.055Z,8.00
2019-03-08T10:37:27.612Z,8.20
2019-03-08T10:40:08.455Z,8.40
2019-03-08T10:43:11.219Z,8.40
2019-03-08T10:45:55.998Z,8.30
2019-03-08T10:48:46.009Z,9.00
2019-03-08T10:51:28.574Z,9.60
2019-03-08T10:54:13.361Z,9.80
2019-03-08T10:56:58.771Z,9.70
2019-03-08T10:59:31.392Z,9.80
2019-03-08T11:02:18.471Z,9.90
2019-03-08T11:04:57.879Z,10.70
2019-03-08T11:07:44.894Z,11.30
2019-03-08T11:10:35.142Z,11.80
2019-03-08T11:13:15.590Z,11.40
2019-03-08T11:16:09.435Z,11.80
2019-03-08T11:19:08.650Z,11.70
2019-03-08T11:21:53.484Z,12.10
2019-03-08T11:24:39.673Z,12.60
2019-03-08T11:27:29.987Z,12.30
2019-03-08T11:30:19.585Z,12.00
2019-03-08T11:33:11.127Z,12.20
2019-03-08T11:35:47.086Z,12.40
2019-03-08T11:38:27.136Z,12.90
2019-03-08T11:41:17.678Z,12.90
2019-03-08T11:44:04.237Z,13.10
2019-03-08T11:46:58.046Z,13.00
2019-03-08T11:49:44.561Z,13.40
2019-03-08T11:52:34.346Z,13.20
2019-03-08T11:55:20.510Z,13.20
2019-03-08T11:58:09.653Z,12.80
2019-03-08T12:00:57.559Z,12.70
2019-03-08T12:03:43.372Z,13.00
2019-03-08T12:06:20.709Z,12.70
2019-03-08T12:08:59.051Z,12.70
2019-03-08T12:11:46.245Z,13.20
2019-03-08T12:14:32.365Z,13.00
2019-03-08T12:17:23.154Z,13.50
2019-03-08T12:20:13.968Z,13.90
2019-03-08T12:22:51.762Z,13.30
2019-03-08T12:25:32.398Z,13.00
2019-03-08T12:28:18.047Z,13.40
2019-03-08T12:31:00.044Z,13.00
2019-03-08T12:33:47.230Z,13.70
2019-03-08T12:36:26.203Z,13.50
2019-03-08T12:39:12.543Z,13.80
2019-03-08T12:42:05.971Z,13.30
2019-03-08T12:44:50.022Z,13.50
2019-03-08T12:47:36.004Z,13.50
2019-03-08T12:50:24.397Z,13.60
2019-03-08T12:53:22.060Z,13.00
2019-03-08T12:56:04.868Z,13.40
2019-03-08T12:58:54.865Z,13.10
2019-03-08T13:01:51.684Z,12.80
2019-03-08T13:04:39.936Z,13.00
2019-03-08T13:07:45.353Z,13.10
2019-03-08T13:10:13.231Z,12.70
2019-03-08T13:12:41.447Z,12.70
2019-03-08T13:15:11.620Z,12.60
2019-03-08T13:17:39.549Z,12.60
2019-03-08T13:20:13.963Z,12.60
2019-03-08T13:22:42.090Z,13.00
2019-03-08T13:25:10.694Z,12.40
2019-03-08T13:27:38.691Z,12.70
2019-03-08T13:30:14.687Z,12.70
2019-03-08T13:32:43.198Z,12.50
2019-03-08T13:35:12.126Z,12.30
2019-03-08T13:37:39.541Z,12.40
2019-03-08T13:40:08.208Z,12.20
2019-03-08T13:42:35.600Z,12.20
2019-03-08T13:45:06.655Z,11.70
2019-03-08T13:47:34.270Z,11.50
2019-03-08T13:50:01.870Z,11.50
2019-03-08T13:52:29.382Z,11.40
2019-03-08T13:54:57.146Z,11.30
2019-03-08T13:57:24.700Z,11.50
2019-03-08T13:59:53.136Z,11.30
2019-03-08T14:02:20.799Z,11.50
2019-03-08T14:04:48.228Z,11.60
2019-03-08T14:07:15.689Z,11.50
2019-03-08T14:09:43.085Z,11.50
2019-03-08T14:12:11.809Z,11.50
2019-03-08T14:14:40.052Z,11.30
2019-03-08T14:17:08.019Z,11.20
2019-03-08T14:19:36.948Z,11.50
2019-03-08T14:22:05.048Z,11.30
2019-03-08T14:24:33.016Z,11.40
2019-03-08T14:27:01.506Z,11.20
2019-03-08T14:29:29.451Z,11.20
2019-03-08T14:32:08.916Z,11.40
2019-03-08T14:34:36.690Z,11.50
2019-03-08T14:37:04.219Z,11.50
2019-03-08T14:39:32.598Z,11.30
2019-03-08T14:42:41.508Z,11.30
2019-03-08T14:45:22.933Z,11.10
2019-03-08T14:47:52.832Z,11.00
2019-03-08T14:50:20.361Z,11.10
2019-03-08T14:52:47.912Z,11.10
2019-03-08T14:55:18.995Z,11.00
2019-03-08T14:57:46.772Z,10.90
2019-03-08T15:00:25.218Z,10.70
2019-03-08T15:02:54.501Z,10.60
2019-03-08T15:05:23.002Z,10.50
2019-03-08T15:07:50.500Z,10.50
2019-03-08T15:10:19.398Z,10.60
2019-03-08T15:12:49.188Z,10.40
2019-03-08T15:15:17.810Z,10.20
2019-03-08T15:17:45.300Z,10.30
2019-03-08T15:20:15.618Z,10.40
2019-03-08T15:22:43.776Z,10.50
2019-03-08T15:25:12.675Z,10.40
2019-03-08T15:27:41.429Z,10.30
2019-03-08T15:30:12.312Z,10.30
2019-03-08T15:32:41.194Z,10.40
2019-03-08T15:35:09.746Z,10.30
2019-03-08T15:37:44.375Z,10.30
2019-03-08T15:40:13.002Z,10.20
2019-03-08T15:42:41.698Z,10.00
2019-03-08T15:45:13.434Z,10.00
2019-03-08T15:47:41.781Z,9.80
2019-03-08T15:50:13.516Z,10.00
2019-03-08T15:52:41.026Z,9.90
2019-03-08T15:55:09.312Z,9.90
2019-03-08T15:57:37.479Z,9.80
2019-03-08T16:00:12.729Z,9.80
2019-03-08T16:02:40.495Z,9.80
2019-03-08T16:05:09.601Z,9.90
2019-03-08T16:07:36.896Z,9.70
2019-03-08T16:10:05.435Z,9.60
2019-03-08T16:12:32.999Z,9.80
2019-03-08T16:15:01.368Z,9.70
2019-03-08T16:17:28.651Z,9.60
2019-03-08T16:19:58.883Z,9.50
2019-03-08T16:22:28.607Z,9.50
2019-03-08T16:24:55.560Z,9.40
2019-03-08T16:27:23.408Z,9.70
2019-03-08T16:29:50.887Z,9.60
2019-03-08T16:32:30.318Z,9.50
2019-03-08T16:34:58.291Z,9.50
2019-03-08T16:37:30.947Z,9.50
2019-03-08T16:40:22.805Z,9.50
2019-03-08T16:42:56.626Z,9.40
2019-03-08T16:45:50.685Z,9.30
2019-03-08T16:48:27.919Z,9.30
2019-03-08T16:51:34.549Z,9.20
2019-03-08T16:54:21.753Z,9.20
2019-03-08T16:57:23.977Z,9.00
2019-03-08T17:00:05.833Z,8.90
2019-03-08T17:02:48.973Z,9.00
2019-03-08T17:05:35.301Z,8.90
2019-03-08T17:08:18.833Z,8.80
2019-03-08T17:10:53.132Z,8.70
2019-03-08T17:13:33.339Z,8.70
2019-03-08T17:16:28.821Z,8.70
2019-03-08T17:19:12.403Z,8.60
2019-03-08T17:22:05.855Z,8.50
2019-03-08T17:24:56.641Z,8.60
2019-03-08T17:27:36.543Z,8.60
2019-03-08T17:30:25.117Z,8.70
2019-03-08T17:33:18.221Z,8.70
2019-03-08T17:36:11.019Z,8.70
2019-03-08T17:38:50.147Z,8.60
2019-03-08T17:41:43.035Z,8.50
2019-03-08T17:44:23.171Z,8.50
2019-03-08T17:47:07.903Z,8.40
2019-03-08T17:49:58.048Z,8.40
2019-03-08T17:52:37.171Z,8.40
2019-03-08T17:55:23.593Z,8.20
2019-03-08T17:58:09.471Z,8.40
2019-03-08T18:00:50.929Z,8.40
2019-03-08T18:03:26.765Z,8.20
2019-03-08T18:06:04.243Z,8.20
2019-03-08T18:09:00.300Z,8.20
2019-03-08T18:11:47.698Z,8.10
2019-03-08T18:14:44.099Z,8.10
2019-03-08T18:17:32.081Z,8.10
2019-03-08T18:20:13.845Z,8.10
2019-03-08T18:22:49.262Z,8.10
2019-03-08T18:25:23.728Z,8.00
2019-03-08T18:28:13.660Z,8.20
2019-03-08T18:31:03.705Z,8.20
2019-03-08T18:33:45.215Z,8.10
2019-03-08T18:36:32.224Z,8.00
2019-03-08T18:39:35.305Z,8.00
2019-03-08T18:42:23.799Z,8.00
2019-03-08T18:44:57.524Z,7.90
2019-03-08T18:47:47.879Z,7.80
2019-03-08T18:50:37.764Z,7.70
2019-03-08T18:53:44.095Z,7.80
2019-03-08T18:56:35.505Z,7.70
2019-03-08T18:59:12.668Z,7.70
2019-03-08T19:01:59.904Z,7.70
2019-03-08T19:04:42.252Z,7.70
2019-03-08T19:07:38.298Z,7.80
2019-03-08T19:10:13.224Z,7.70
2019-03-08T19:13:06.432Z,7.80
2019-03-08T19:15:52.602Z,7.80
2019-03-08T19:18:39.375Z,7.80
2019-03-08T19:21:29.626Z,7.80
2019-03-08T19:24:10.816Z,7.80
2019-03-08T19:27:01.463Z,7.90
2019-03-08T19:29:46.591Z,7.80
2019-03-08T19:32:33.786Z,7.80
2019-03-08T19:35:24.489Z,7.80
2019-03-08T19:38:16.163Z,7.80
2019-03-08T19:40:55.562Z,7.80
2019-03-08T19:43:29.252Z,7.80
2019-03-08T19:46:04.298Z,7.70
2019-03-08T19:48:50.343Z,7.70
2019-03-08T19:51:36.263Z,7.70
2019-03-08T19:54:19.271Z,7.80
2019-03-08T19:57:13.074Z,7.80
2019-03-08T20:00:06.285Z,7.80
2019-03-08T20:02:43.264Z,7.80
2019-03-08T20:05:39.592Z,7.80
2019-03-08T20:08:44.788Z,7.80
2019-03-08T20:11:22.112Z,7.80
2019-03-08T20:14:24.827Z,7.90
2019-03-08T20:17:06.586Z,7.80
2019-03-08T20:19:46.425Z,7.80
2019-03-08T20:22:43.384Z,7.70
2019-03-08T20:25:20.131Z,7.70
2019-03-08T20:28:09.714Z,7.80
2019-03-08T20:30:59.552Z,7.80
2019-03-08T20:33:37.900Z,7.80
2019-03-08T20:36:23.901Z,7.90
2019-03-08T20:39:15.940Z,7.80
2019-03-08T20:42:12.754Z,7.70
2019-03-08T20:44:48.702Z,7.70
2019-03-08T20:47:19.929Z,7.60
2019-03-08T20:49:47.577Z,7.60
2019-03-08T20:52:15.475Z,7.60
2019-03-08T20:54:43.632Z,7.60
2019-03-08T20:57:11.172Z,7.40
2019-03-08T20:59:39.019Z,7.40
2019-03-08T21:02:06.838Z,7.30
2019-03-08T21:04:34.564Z,7.30
2019-03-08T21:07:03.777Z,7.30
2019-03-08T21:09:31.373Z,7.20
2019-03-08T21:11:59.196Z,7.30
2019-03-08T21:14:26.640Z,7.20
2019-03-08T21:16:54.583Z,7.10
2019-03-08T21:19:22.576Z,7.10
2019-03-08T21:21:50.955Z,7.00
2019-03-08T21:24:18.279Z,7.00
2019-03-08T21:26:45.663Z,7.10
2019-03-08T21:29:13.230Z,7.00
2019-03-08T21:31:40.513Z,7.00
2019-03-08T21:34:07.908Z,6.90
2019-03-08T21:40:51.368Z,7.00
2019-03-08T21:43:18.980Z,7.00
2019-03-08T21:45:46.367Z,7.00
2019-03-08T21:48:14.148Z,7.00
2019-03-08T21:50:41.515Z,7.00
2019-03-08T21:53:09.077Z,7.00
2019-03-08T21:55:36.599Z,7.10
2019-03-08T21:58:04.074Z,7.00
2019-03-08T22:00:31.629Z,7.10
2019-03-08T22:02:59.205Z,7.10
2019-03-08T22:05:29.973Z,7.00
2019-03-08T22:07:57.615Z,7.00
2019-03-08T22:10:41.502Z,7.10
2019-03-08T22:13:08.794Z,7.00
2019-03-08T22:15:36.392Z,7.00
2019-03-08T22:18:03.982Z,6.90
2019-03-08T22:20:31.364Z,7.00
2019-03-08T22:22:59.199Z,7.10
2019-03-08T22:25:27.671Z,7.10
2019-03-08T22:27:55.082Z,7.20
2019-03-08T22:30:22.581Z,7.10
2019-03-08T22:32:49.856Z,7.20
2019-03-08T22:35:17.991Z,7.20
2019-03-08T22:37:45.746Z,7.20
2019-03-08T22:40:14.207Z,7.20
2019-03-08T22:42:42.181Z,7.30
2019-03-08T22:45:10.442Z,7.20
2019-03-08T22:47:37.853Z,7.20
2019-03-08T22:50:06.031Z,7.20
2019-03-08T22:52:34.707Z,7.20
2019-03-08T22:55:02.564Z,7.10
2019-03-08T22:57:30.542Z,7.20
2019-03-08T22:59:58.311Z,7.20
2019-03-08T23:02:26.112Z,7.10
2019-03-08T23:04:53.377Z,7.10
2019-03-08T23:07:21.429Z,7.10
2019-03-08T23:09:49.304Z,7.00
2019-03-08T23:12:16.701Z,7.00
2019-03-08T23:14:44.677Z,7.00
2019-03-08T23:17:12.396Z,7.00
2019-03-08T23:19:40.278Z,6.90
2019-03-08T23:22:07.794Z,6.90
2019-03-08T23:24:35.603Z,6.90
2019-03-08T23:27:28.758Z,6.80
2019-03-08T23:29:59.342Z,6.80
2019-03-08T23:32:33.093Z,6.80
2019-03-08T23:35:00.388Z,6.70
2019-03-08T23:37:28.324Z,6.70
2019-03-08T23:39:56.256Z,6.80
2019-03-08T23:42:24.866Z,6.80
2019-03-08T23:44:52.485Z,6.80
2019-03-08T23:47:19.908Z,6.80
2019-03-08T23:49:47.191Z,6.80
2019-03-08T23:52:15.159Z,6.80
2019-03-08T23:54:42.579Z,6.80
2019-03-08T23:57:11.158Z,6.70
2019-03-08T23:59:38.317Z,6.80
